Alamo, TX

8:26 AM CST on March 06, 2015 (GMT -0600)
Los Lagos White House | Change Station
CLOSE
Current Station
Personal Weather Station
Location: Edinburg, TX
Elevation: 105 ft
Nearby Weather Stations

Elev 105 ft 26.28 °N, 98.14 °W | Updated 7 minutes ago

Overcast
Overcast
42.6 °F
Feels Like 38 °F
N
8.3
Wind Variable Wind from ENE

Today
High -- | Low -- °F
--% Chance of Precip.
Yesterday
High -- | Low -- °F
Precip. -- in
6:51 AM 6:36 PM
Full, 99% visible
Pressure 30.57 in
Visibility 10.0 miles
Clouds Overcast 8000 ft
Windchill 38 °F
Dew Point 30 °F
Humidity 60%
Rainfall in
Snow Depth Not available.
UV 0 out of 12
Pollen 5.80 out of 12
Air Quality Not available.
Flu Activity Not available.
METAR KMFE 061353Z 36009KT 10SM OVC080 07/M02 A3057 RMK AO2 SLP350 T00671022

More Conditions Fewer Conditions

Pressure 30.57 in
Visibility 10.0 miles
Clouds Overcast 8000 ft
Windchill 38 °F
Dew Point 30 °F
Humidity 60%
Rainfall in
Snow Depth Not available.
UV 0 out of 12
Pollen 5.80 out of 12
Air Quality Not available.
Flu Activity Not available.
METAR KMFE 061353Z 36009KT 10SM OVC080 07/M02 A3057 RMK AO2 SLP350 T00671022

More Conditions Fewer Conditions

10-Day Weather Forecast

Almanac

Astronomy

Mar. 06, 2015 Rise Set
Actual Time
Civil Twilight
Nautical Twilight
Astronomical Twilight
Moon
Length of Visible Light
Length of Day
Tomorrow will be .
, % of the Moon is Illuminated

Today's Extremes

State Highs State Lows

Community

WunderPhotos

Upload Photos

1,803,282 photos uploaded!

WunderBlogs® & News

Nearby

Air Quality

  Air Quality AQ Index Pollutant
Not available.

Snow Depth

Station Depth Elevation

Earthquake Activity

City Distance Mag. Time & Date
Minimum magnitude displayed is 2.5.

Coastal Water Temperatures

Place Temperature

Nearby Weather Stations